Flight Track Log - Related Links

Times and Time Zones

All times are in EDT time to prevent confusion due to time zone crossing. See the N6746T flight status page for this flight to view local times or setup timezone preferences in your user account.


Time Position Orientation Groundspeed Altitude Reporting Facility
EDT Latitude Longitude Course Direction KTS MPH feet Rate Location/Type
Thu 12:07:29 PM 33.8000 -118.3167 90° East 97 112 1,400  Level Southern California TRACON
Thu 12:08:35 PM 33.8000 -118.2667 90° East 129 148 2,400 808 Climbing Southern California TRACON
Thu 12:09:13 PM 33.7936 -118.2542 122° Southeast 112 129 2,800 743 Climbing Los Angeles Center
Thu 12:10:28 PM 33.7836 -118.2072 104° East 119 137 3,800 745 Climbing Los Angeles Center
Thu 12:11:30 PM 33.7767 -118.1547 99° East 128 147 4,500 435 Climbing Los Angeles Center
Thu 12:12:32 PM 33.7725 -118.1050 96° East 143 165 4,700 145 Climbing Los Angeles Center
Thu 12:13:34 PM 33.7669 -118.0500 97° East 161 185 4,800 378 Climbing Los Angeles Center
Thu 12:14:23 PM 33.7667 -118.0000 90° East 166 191 5,400 385 Climbing Southern California TRACON
Thu 12:15:23 PM 33.7500 -117.9500 112° Southeast 158 182 5,500 50 Climbing Southern California TRACON
Thu 12:16:23 PM 33.7333 -117.9000 112° Southeast 169 194 5,500  Level Southern California TRACON
Thu 12:17:24 PM 33.7333 -117.8333 90° East 171 197 5,500 -99 Level Southern California TRACON
Thu 12:18:24 PM 33.7167 -117.7833 112° Southeast 178 205 5,300 -50 Descending Southern California TRACON
Thu 12:19:25 PM 33.7000 -117.7333 112° Southeast 175 201 5,400 52 Climbing Southern California TRACON
Thu 12:20:19 PM 33.6833 -117.6833 112° Southeast 172 198 5,400 53 Level Southern California TRACON
Thu 12:21:19 PM 33.6833 -117.6167 90° East 169 194 5,500 65 Climbing Southern California TRACON
Thu 12:21:51 PM 33.6764 -117.5994 116° Southeast 171 197 5,500  Level Los Angeles Center
Thu 12:22:53 PM 33.6872 -117.5350 79° East 166 191 5,500  Level Los Angeles Center
Thu 12:23:55 PM 33.7081 -117.4839 64° Northeast 170 196 5,500 -145 Level Los Angeles Center
Thu 12:24:57 PM 33.7056 -117.4306 93° East 172 198 5,200 -336 Descending Los Angeles Center
Thu 12:26:00 PM 33.7044 -117.3686 91° East 178 205 4,800 -288 Descending Los Angeles Center
Thu 12:27:02 PM 33.6994 -117.2950 95° East 181 208 4,600 -194 Descending Los Angeles Center
Thu 12:29:00 PM 33.7112 -117.2027 90° East  Level Estimated

Login

Don't have an account? Register now (free) for customized features, flight alerts, and more!